createdAt,value
2024-03-26T00:00:00.395Z,7.26
2024-03-26T00:00:20.939Z,7.26
2024-03-26T00:00:41.535Z,7.27
2024-03-26T00:01:02.100Z,7.27
2024-03-26T00:01:22.552Z,7.27
2024-03-26T00:01:43.209Z,7.22
2024-03-26T00:02:03.812Z,7.24
2024-03-26T00:02:24.391Z,7.25
2024-03-26T00:02:44.938Z,7.26
2024-03-26T00:03:05.524Z,7.35
2024-03-26T00:03:26.084Z,7.5
2024-03-26T00:03:46.674Z,7.33
2024-03-26T00:04:07.255Z,7.27
2024-03-26T00:04:27.820Z,7.18
2024-03-26T00:04:48.365Z,7.2
2024-03-26T00:05:08.974Z,7.2
2024-03-26T00:05:29.539Z,7.19
2024-03-26T00:05:50.080Z,7.19
2024-03-26T00:06:10.687Z,7.18
2024-03-26T00:06:31.240Z,7.15
2024-03-26T00:06:51.812Z,7.12
2024-03-26T00:07:12.367Z,7.11
2024-03-26T00:07:32.972Z,7.11
2024-03-26T00:07:53.524Z,7.12
2024-03-26T00:08:14.107Z,7.15
2024-03-26T00:08:34.675Z,7.13
2024-03-26T00:08:55.223Z,7.15
2024-03-26T00:09:15.732Z,7.15
2024-03-26T00:09:36.377Z,7.14
2024-03-26T00:09:56.996Z,7.14
2024-03-26T00:10:17.526Z,7.13
2024-03-26T00:10:38.091Z,7.14
2024-03-26T00:10:58.673Z,7.13
2024-03-26T00:11:19.241Z,7.13
2024-03-26T00:11:39.842Z,7.12
2024-03-26T00:12:00.389Z,7.11
2024-03-26T00:12:20.977Z,7.1
2024-03-26T00:12:41.555Z,7.08
2024-03-26T00:13:02.096Z,7.08
2024-03-26T00:13:22.729Z,7.07
2024-03-26T00:13:43.181Z,7.06
2024-03-26T00:14:03.815Z,7.07
2024-03-26T00:14:24.397Z,7.08
2024-03-26T00:14:44.984Z,7.07
2024-03-26T00:15:05.590Z,7.1
2024-03-26T00:15:26.128Z,7.07
2024-03-26T00:15:46.677Z,7.08
2024-03-26T00:16:07.282Z,7.09
2024-03-26T00:16:27.827Z,7.08
2024-03-26T00:16:48.399Z,7.07
2024-03-26T00:17:08.966Z,7.08
2024-03-26T00:17:29.538Z,7.08
2024-03-26T00:17:50.123Z,7.07
2024-03-26T00:18:10.705Z,7.1
2024-03-26T00:18:31.255Z,7.12
2024-03-26T00:18:51.831Z,7.13
2024-03-26T00:19:12.403Z,7.12
2024-03-26T00:19:32.979Z,7.12
2024-03-26T00:19:53.557Z,7.14
2024-03-26T00:20:14.123Z,7.14
2024-03-26T00:20:34.691Z,7.37
2024-03-26T00:20:55.255Z,7.27
2024-03-26T00:21:18.243Z,7.24
2024-03-26T00:21:36.425Z,7.24
2024-03-26T00:21:56.907Z,7.21
2024-03-26T00:22:17.561Z,7.17
2024-03-26T00:22:38.146Z,7.13
2024-03-26T00:22:58.698Z,7.15
2024-03-26T00:23:19.303Z,7.16
2024-03-26T00:23:39.935Z,7.15
2024-03-26T00:24:00.447Z,7.16
2024-03-26T00:24:21.010Z,7.16
2024-03-26T00:24:41.593Z,7.11
2024-03-26T00:25:02.165Z,7.12
2024-03-26T00:25:22.711Z,7.11
2024-03-26T00:25:43.282Z,7.07
2024-03-26T00:26:03.881Z,7.08
2024-03-26T00:26:24.425Z,7.08
2024-03-26T00:27:26.058Z,7.06
2024-03-26T00:27:46.737Z,7.07
2024-03-26T00:28:07.295Z,7.06
2024-03-26T00:28:27.867Z,7.06
2024-03-26T00:28:48.448Z,7.05
2024-03-26T00:29:09.002Z,7.05
2024-03-26T00:29:29.610Z,7.04
2024-03-26T00:29:50.154Z,7.02
2024-03-26T00:30:10.642Z,7
2024-03-26T00:30:31.320Z,7.01
2024-03-26T00:30:51.870Z,7.01
2024-03-26T00:31:12.437Z,7
2024-03-26T00:31:33.002Z,7.01
2024-03-26T00:31:53.591Z,7.04
2024-03-26T00:32:14.198Z,7.03
2024-03-26T00:32:34.755Z,7.04
2024-03-26T00:32:55.302Z,7.05
2024-03-26T00:33:15.924Z,7.06
2024-03-26T00:33:36.455Z,7.08
2024-03-26T00:33:57.027Z,7.08
2024-03-26T00:34:17.595Z,7.09
2024-03-26T00:34:38.162Z,7.1
2024-03-26T00:34:58.738Z,7.1
2024-03-26T00:35:19.372Z,7.11
2024-03-26T00:35:39.897Z,7.12
2024-03-26T00:36:00.461Z,7.11
2024-03-26T00:36:21.034Z,7.12
2024-03-26T00:36:41.706Z,7.08
2024-03-26T00:37:02.179Z,7.08
2024-03-26T00:37:22.747Z,7.07
2024-03-26T00:37:43.329Z,7.09
2024-03-26T00:38:03.915Z,7.1
2024-03-26T00:38:24.484Z,7.12
2024-03-26T00:38:45.029Z,7.13
2024-03-26T00:39:05.628Z,7.13
2024-03-26T00:39:26.203Z,7.14
2024-03-26T00:39:46.767Z,7.16
2024-03-26T00:40:07.344Z,7.19
2024-03-26T00:40:27.880Z,7.23
2024-03-26T00:40:48.471Z,7.24
2024-03-26T00:41:09.044Z,7.25
2024-03-26T00:41:29.653Z,7.24
2024-03-26T00:41:50.124Z,7.23
2024-03-26T00:42:10.762Z,7.21
2024-03-26T00:42:31.341Z,7.21
2024-03-26T00:42:52.083Z,7.21
2024-03-26T00:43:12.475Z,7.22
2024-03-26T00:43:33.053Z,7.21
2024-03-26T00:43:53.651Z,7.19
2024-03-26T00:44:14.218Z,7.15
2024-03-26T00:44:34.756Z,7.14
2024-03-26T00:44:55.350Z,7.13
2024-03-26T00:45:15.949Z,7.15
2024-03-26T00:45:36.493Z,7.15
2024-03-26T00:45:57.064Z,7.16
2024-03-26T00:46:17.544Z,7.17
2024-03-26T00:46:38.196Z,7.18
2024-03-26T00:46:58.776Z,7.2
2024-03-26T00:47:19.353Z,7.2
2024-03-26T00:47:39.947Z,7.2
2024-03-26T00:48:00.518Z,7.18
2024-03-26T00:48:21.071Z,7.16
2024-03-26T00:48:41.641Z,7.16
2024-03-26T00:49:02.219Z,7.16
2024-03-26T00:49:22.773Z,7.15
2024-03-26T00:49:43.355Z,7.15
2024-03-26T00:50:03.925Z,7.15
2024-03-26T00:50:24.506Z,7.15
2024-03-26T00:50:45.082Z,7.15
2024-03-26T00:51:05.654Z,7.12
2024-03-26T00:51:42.679Z,7.19
2024-03-26T00:52:03.319Z,7.38
2024-03-26T00:52:23.898Z,7.47
2024-03-26T00:52:44.422Z,7.52
2024-03-26T00:53:04.967Z,7.5
2024-03-26T00:53:25.574Z,7.54
2024-03-26T00:53:46.145Z,7.38
2024-03-26T00:54:06.693Z,7.25
2024-03-26T00:54:27.716Z,7.18
2024-03-26T00:54:47.841Z,7.14
2024-03-26T00:55:08.403Z,7.11
2024-03-26T00:55:28.987Z,7.07
2024-03-26T00:55:49.570Z,7.14
2024-03-26T00:56:10.139Z,7.08
2024-03-26T00:56:30.703Z,7.06
2024-03-26T00:56:51.293Z,7.02
2024-03-26T00:57:11.860Z,7.01
2024-03-26T00:57:32.458Z,7.01
2024-03-26T00:57:52.995Z,7.02
2024-03-26T00:58:13.569Z,6.96
2024-03-26T00:58:34.136Z,6.99
2024-03-26T00:58:54.713Z,7.17
2024-03-26T00:59:15.281Z,7.27
2024-03-26T00:59:35.844Z,7.41
2024-03-26T00:59:56.443Z,7.23
2024-03-26T01:00:16.994Z,7.12
2024-03-26T01:00:37.511Z,7.06
2024-03-26T01:00:58.188Z,7.02
2024-03-26T01:01:18.766Z,7.01
2024-03-26T01:01:39.301Z,6.99
2024-03-26T01:01:59.869Z,6.96
2024-03-26T01:02:20.434Z,6.97
2024-03-26T01:02:41.014Z,6.81
2024-03-26T01:03:01.620Z,6.85
2024-03-26T01:03:22.160Z,6.82
2024-03-26T01:03:42.776Z,6.74
2024-03-26T01:04:03.301Z,6.72
2024-03-26T01:04:23.873Z,6.65
2024-03-26T01:04:44.474Z,6.67
2024-03-26T01:05:05.016Z,6.68
2024-03-26T01:05:25.590Z,6.65
2024-03-26T01:05:46.203Z,6.67
2024-03-26T01:06:06.745Z,6.69
2024-03-26T01:06:27.321Z,6.71
2024-03-26T01:06:47.892Z,6.74
2024-03-26T01:07:08.455Z,6.76
2024-03-26T01:07:29.033Z,6.75
2024-03-26T01:07:49.595Z,6.77
2024-03-26T01:08:10.170Z,6.78
2024-03-26T01:08:30.742Z,6.78
2024-03-26T01:08:51.330Z,6.81
2024-03-26T01:09:11.907Z,6.81
2024-03-26T01:09:32.496Z,6.81
2024-03-26T01:09:53.072Z,6.81
2024-03-26T01:10:13.642Z,6.84
2024-03-26T01:10:34.166Z,6.84
2024-03-26T01:10:54.781Z,6.86
2024-03-26T01:11:15.322Z,6.84
2024-03-26T01:11:35.895Z,6.86
2024-03-26T01:11:56.483Z,6.86
2024-03-26T01:12:17.042Z,6.87
2024-03-26T01:12:37.607Z,6.89
2024-03-26T01:12:58.175Z,6.92
2024-03-26T01:13:18.763Z,6.94
2024-03-26T01:13:39.323Z,6.94
2024-03-26T01:13:59.902Z,6.95
2024-03-26T01:14:20.518Z,6.97
2024-03-26T01:14:41.064Z,6.96
2024-03-26T01:15:01.671Z,6.97
2024-03-26T01:15:22.182Z,6.98
2024-03-26T01:15:42.778Z,6.97
2024-03-26T01:16:03.344Z,6.97
2024-03-26T01:16:23.913Z,6.95
2024-03-26T01:16:44.485Z,6.94
2024-03-26T01:17:05.060Z,6.95
2024-03-26T01:17:25.701Z,6.94
2024-03-26T01:17:46.237Z,6.93
2024-03-26T01:18:06.774Z,6.9
2024-03-26T01:18:27.328Z,6.82
2024-03-26T01:18:47.934Z,6.81
2024-03-26T01:19:08.493Z,6.81
2024-03-26T01:19:29.070Z,6.81
2024-03-26T01:19:49.638Z,6.78
2024-03-26T01:20:10.216Z,6.79
2024-03-26T01:20:30.803Z,6.78
2024-03-26T01:20:51.397Z,6.78
2024-03-26T01:21:11.915Z,6.75
2024-03-26T01:21:32.519Z,6.72
2024-03-26T01:21:53.065Z,6.75
2024-03-26T01:22:13.662Z,6.77
2024-03-26T01:22:34.229Z,6.77
2024-03-26T01:22:54.801Z,6.71
2024-03-26T01:23:15.359Z,6.64
2024-03-26T01:23:35.936Z,6.63
2024-03-26T01:23:56.495Z,6.62
2024-03-26T01:24:17.092Z,6.6
2024-03-26T01:24:37.653Z,6.55
2024-03-26T01:24:58.269Z,6.57
2024-03-26T01:25:18.787Z,6.56
2024-03-26T01:25:39.391Z,6.52
2024-03-26T01:25:59.928Z,6.47
2024-03-26T01:26:20.512Z,6.45
2024-03-26T01:26:41.084Z,6.41
2024-03-26T01:27:01.677Z,6.44
2024-03-26T01:27:22.232Z,6.45
2024-03-26T01:27:42.800Z,6.46
2024-03-26T01:28:03.373Z,6.43
2024-03-26T01:28:23.944Z,6.45
2024-03-26T01:28:44.729Z,6.47
2024-03-26T01:29:05.112Z,6.49
2024-03-26T01:29:25.599Z,6.51
2024-03-26T01:29:46.275Z,6.5
2024-03-26T01:30:06.851Z,6.49
2024-03-26T01:30:27.409Z,6.5
2024-03-26T01:30:47.948Z,6.5
2024-03-26T01:31:08.567Z,6.52
2024-03-26T01:31:29.098Z,6.51
2024-03-26T01:31:49.682Z,6.55
2024-03-26T01:32:10.284Z,6.56
2024-03-26T01:32:30.892Z,6.58
2024-03-26T01:32:51.378Z,6.61
2024-03-26T01:33:11.972Z,6.59
2024-03-26T01:33:32.542Z,6.61
2024-03-26T01:33:53.020Z,6.6
2024-03-26T01:34:13.692Z,6.58
2024-03-26T01:34:34.252Z,6.62
2024-03-26T01:34:55.016Z,6.62
2024-03-26T01:35:15.386Z,6.61
2024-03-26T01:35:35.951Z,6.63
2024-03-26T01:35:56.535Z,6.64
2024-03-26T01:36:17.129Z,6.66
2024-03-26T01:36:37.684Z,6.68
2024-03-26T01:36:58.253Z,6.7
2024-03-26T01:37:18.856Z,6.7
2024-03-26T01:37:39.406Z,6.71
2024-03-26T01:37:59.986Z,6.7
2024-03-26T01:38:20.542Z,6.66
2024-03-26T01:38:41.141Z,6.66
2024-03-26T01:39:01.672Z,6.67
2024-03-26T01:39:22.296Z,6.65
2024-03-26T01:39:42.830Z,6.66
2024-03-26T01:40:03.405Z,6.67
2024-03-26T01:40:23.991Z,6.67
2024-03-26T01:40:44.473Z,6.67
2024-03-26T01:41:05.113Z,6.67
2024-03-26T01:41:25.712Z,6.67
2024-03-26T01:41:46.319Z,6.68
2024-03-26T01:42:06.855Z,6.64
2024-03-26T01:42:27.407Z,6.61
2024-03-26T01:42:47.985Z,6.59
2024-03-26T01:43:08.556Z,6.47
2024-03-26T01:43:29.142Z,6.48
2024-03-26T01:43:49.714Z,6.46
2024-03-26T01:44:10.269Z,6.48
2024-03-26T01:44:30.832Z,6.49
2024-03-26T01:44:51.426Z,6.5
2024-03-26T01:45:11.984Z,6.52
2024-03-26T01:45:32.566Z,6.53
2024-03-26T01:45:53.130Z,6.53
2024-03-26T01:46:13.708Z,6.55
2024-03-26T01:46:34.285Z,6.58
2024-03-26T01:46:54.886Z,6.59
2024-03-26T01:47:15.663Z,6.52
2024-03-26T01:47:36.013Z,6.55
2024-03-26T01:47:56.579Z,6.56
2024-03-26T01:48:17.152Z,6.58
2024-03-26T01:48:37.727Z,6.58
2024-03-26T01:48:58.274Z,6.6
2024-03-26T01:49:18.779Z,6.63
2024-03-26T01:49:39.424Z,6.64
2024-03-26T01:50:00.051Z,6.62
2024-03-26T01:50:20.600Z,6.6
2024-03-26T01:50:41.168Z,6.56
2024-03-26T01:51:01.731Z,6.55
2024-03-26T01:51:22.280Z,6.57
2024-03-26T01:51:42.791Z,6.59
2024-03-26T01:52:03.444Z,6.59
2024-03-26T01:52:24.039Z,6.58
2024-03-26T01:52:44.582Z,6.52
2024-03-26T01:53:05.161Z,6.53
2024-03-26T01:53:25.763Z,6.53
2024-03-26T01:53:46.330Z,6.54
2024-03-26T01:54:06.898Z,6.57
2024-03-26T01:54:27.448Z,6.56
2024-03-26T01:54:48.025Z,6.41
2024-03-26T01:55:08.581Z,6.36
2024-03-26T01:55:29.196Z,6.34
2024-03-26T01:55:49.730Z,6.25
2024-03-26T01:56:10.310Z,6.26
2024-03-26T01:56:30.877Z,6.28
2024-03-26T01:56:51.460Z,6.3
2024-03-26T01:57:12.023Z,6.29
2024-03-26T01:57:32.629Z,6.3
2024-03-26T01:57:53.155Z,6.33
2024-03-26T01:58:13.741Z,6.34
2024-03-26T01:58:34.311Z,6.36
2024-03-26T01:58:54.897Z,6.35
2024-03-26T01:59:15.461Z,6.35
2024-03-26T01:59:36.050Z,6.29
2024-03-26T01:59:56.609Z,6.18
2024-03-26T02:00:33.596Z,6.18
2024-03-26T02:00:54.212Z,6.19
2024-03-26T02:01:14.775Z,6.21
2024-03-26T02:01:35.373Z,6.23
2024-03-26T02:01:55.936Z,6.24
2024-03-26T02:02:16.530Z,6.26
2024-03-26T02:02:37.131Z,6.28
2024-03-26T02:02:57.666Z,6.3
2024-03-26T02:03:18.231Z,6.3
2024-03-26T02:03:38.829Z,6.34
2024-03-26T02:03:59.420Z,6.36
2024-03-26T02:04:19.977Z,6.35
2024-03-26T02:04:40.538Z,6.3
2024-03-26T02:05:01.222Z,6.25
2024-03-26T02:05:21.684Z,6.21
2024-03-26T02:05:42.251Z,6.25
2024-03-26T02:06:02.811Z,6.21
2024-03-26T02:06:23.384Z,6.01
2024-03-26T02:06:43.968Z,5.97
2024-03-26T02:07:04.523Z,5.95
2024-03-26T02:07:25.093Z,5.98
2024-03-26T02:07:45.678Z,6.01
2024-03-26T02:08:06.262Z,5.98
2024-03-26T02:08:26.808Z,5.87
2024-03-26T02:08:47.395Z,5.96
2024-03-26T02:09:07.974Z,6.03
2024-03-26T02:09:28.523Z,6.08
2024-03-26T02:09:49.118Z,6.1
2024-03-26T02:10:09.689Z,6.02
2024-03-26T02:10:30.255Z,6.05
2024-03-26T02:10:50.815Z,6.09
2024-03-26T02:11:11.445Z,6.11
2024-03-26T02:11:31.965Z,6.06
2024-03-26T02:11:52.568Z,6.02
2024-03-26T02:12:13.123Z,5.99
2024-03-26T02:12:33.601Z,6
2024-03-26T02:12:54.263Z,5.96
2024-03-26T02:13:14.837Z,5.94
2024-03-26T02:13:35.435Z,5.94
2024-03-26T02:13:55.986Z,5.96
2024-03-26T02:14:16.547Z,5.93
2024-03-26T02:14:37.117Z,5.92
2024-03-26T02:14:57.716Z,5.97
2024-03-26T02:15:18.259Z,6.02
2024-03-26T02:15:38.820Z,6.04
2024-03-26T02:15:59.403Z,6.04
2024-03-26T02:16:19.989Z,6.07
2024-03-26T02:16:40.551Z,6.04
2024-03-26T02:17:01.111Z,6.07
2024-03-26T02:17:21.698Z,6.04
2024-03-26T02:17:42.297Z,6.04
2024-03-26T02:18:02.849Z,5.95
2024-03-26T02:18:23.412Z,5.94
2024-03-26T02:18:43.991Z,5.83
2024-03-26T02:19:04.556Z,5.75
2024-03-26T02:19:25.135Z,5.8
2024-03-26T02:19:45.720Z,5.85
2024-03-26T02:20:06.343Z,5.86
2024-03-26T02:20:26.865Z,5.87
2024-03-26T02:20:47.875Z,5.68
2024-03-26T02:21:08.010Z,5.7
2024-03-26T02:21:28.477Z,5.71
2024-03-26T02:21:49.189Z,5.72
2024-03-26T02:22:09.738Z,5.63
2024-03-26T02:22:30.306Z,5.63
2024-03-26T02:22:50.898Z,5.5
2024-03-26T02:23:11.464Z,5.42
2024-03-26T02:23:32.008Z,5.53
2024-03-26T02:23:52.571Z,5.55
2024-03-26T02:24:13.162Z,5.57
2024-03-26T02:24:33.716Z,5.6
2024-03-26T02:24:54.291Z,5.62
2024-03-26T02:25:35.435Z,5.67
2024-03-26T02:25:56.027Z,5.7
2024-03-26T02:26:16.584Z,5.74
2024-03-26T02:26:37.130Z,5.65
2024-03-26T02:26:58.100Z,5.64
2024-03-26T02:27:18.293Z,5.67
2024-03-26T02:27:38.883Z,5.54
2024-03-26T02:27:59.465Z,5.3
2024-03-26T02:28:20.009Z,5.35
2024-03-26T02:28:40.583Z,5.44
2024-03-26T02:29:01.253Z,5.51
2024-03-26T02:29:21.738Z,5.47
2024-03-26T02:29:42.302Z,5.43
2024-03-26T02:30:02.894Z,5.49
2024-03-26T02:30:23.457Z,5.56
2024-03-26T02:30:44.054Z,5.6
2024-03-26T02:31:04.608Z,5.56
2024-03-26T02:31:25.178Z,5.61
2024-03-26T02:31:45.736Z,5.63
2024-03-26T02:32:06.325Z,5.62
2024-03-26T02:32:26.816Z,5.69
2024-03-26T02:32:47.468Z,5.75
2024-03-26T02:33:08.024Z,5.81
2024-03-26T02:33:28.620Z,5.85
2024-03-26T02:33:49.160Z,5.84
2024-03-26T02:34:09.746Z,5.81
2024-03-26T02:34:30.340Z,5.84
2024-03-26T02:34:50.902Z,5.85
2024-03-26T02:35:11.495Z,5.83
2024-03-26T02:35:32.041Z,5.77
2024-03-26T02:35:52.614Z,5.78
2024-03-26T02:36:13.174Z,5.79
2024-03-26T02:36:33.774Z,5.81
2024-03-26T02:36:54.322Z,5.85
2024-03-26T02:37:15.365Z,5.89
2024-03-26T02:37:35.471Z,5.87
2024-03-26T02:37:56.081Z,5.9
2024-03-26T02:38:16.629Z,5.91
2024-03-26T02:38:37.196Z,5.89
2024-03-26T02:38:57.765Z,5.88
2024-03-26T02:39:18.343Z,5.94
2024-03-26T02:39:38.912Z,5.95
2024-03-26T02:39:59.468Z,5.95
2024-03-26T02:40:20.058Z,5.96
2024-03-26T02:40:40.615Z,5.87
2024-03-26T02:41:01.198Z,5.92
2024-03-26T02:41:21.696Z,5.94
2024-03-26T02:41:42.347Z,5.95
2024-03-26T02:42:02.936Z,5.96
2024-03-26T02:42:23.537Z,5.95
2024-03-26T02:42:44.088Z,5.98
2024-03-26T02:43:04.671Z,5.99
2024-03-26T02:43:25.195Z,6.01
2024-03-26T02:43:45.797Z,6
2024-03-26T02:44:06.341Z,5.99
2024-03-26T02:44:26.947Z,5.98
2024-03-26T02:44:47.527Z,5.99
2024-03-26T02:45:08.067Z,6
2024-03-26T02:45:28.651Z,6.01
2024-03-26T02:45:49.300Z,6.02
2024-03-26T02:46:09.770Z,6.03
2024-03-26T02:46:30.377Z,6.02
2024-03-26T02:46:50.917Z,6.05
2024-03-26T02:47:11.510Z,6.08
2024-03-26T02:47:32.077Z,6.08
2024-03-26T02:47:52.652Z,6.11
2024-03-26T02:48:13.213Z,6.07
2024-03-26T02:48:33.798Z,6.06
2024-03-26T02:48:54.366Z,6.05
2024-03-26T02:49:14.964Z,6.03
2024-03-26T02:49:35.517Z,6
2024-03-26T02:49:56.071Z,5.99
2024-03-26T02:50:16.649Z,5.99
2024-03-26T02:50:37.220Z,5.99
2024-03-26T02:50:57.802Z,5.97
2024-03-26T02:51:18.356Z,6
2024-03-26T02:51:38.948Z,6.01
2024-03-26T02:51:59.521Z,6.05
2024-03-26T02:52:20.091Z,6.09
2024-03-26T02:52:40.638Z,6.08
2024-03-26T02:53:01.300Z,6.09
2024-03-26T02:53:21.814Z,6.04
2024-03-26T02:53:42.443Z,5.91
2024-03-26T02:54:02.972Z,5.92
2024-03-26T02:54:23.529Z,5.95
2024-03-26T02:54:44.100Z,5.97
2024-03-26T02:55:04.717Z,5.96
2024-03-26T02:55:25.268Z,5.98
2024-03-26T02:55:45.818Z,5.99
2024-03-26T02:56:06.391Z,5.98
2024-03-26T02:56:26.958Z,6
2024-03-26T02:56:47.468Z,6.01
2024-03-26T02:57:08.106Z,6.01
2024-03-26T02:57:28.678Z,6
2024-03-26T02:57:49.234Z,6.01
2024-03-26T02:58:09.815Z,6.01
2024-03-26T02:58:30.393Z,6.02
2024-03-26T02:58:50.998Z,6.03
2024-03-26T02:59:11.556Z,6.05
2024-03-26T02:59:32.124Z,6.08
2024-03-26T02:59:52.690Z,5.82
2024-03-26T03:00:13.168Z,5.84
2024-03-26T03:00:33.863Z,5.86
2024-03-26T03:00:54.409Z,5.85
2024-03-26T03:01:14.915Z,5.88
2024-03-26T03:01:35.530Z,5.9
2024-03-26T03:01:56.127Z,5.92
2024-03-26T03:02:16.688Z,5.94
2024-03-26T03:02:37.253Z,5.98
2024-03-26T03:02:57.839Z,5.98
2024-03-26T03:03:18.413Z,6.01
2024-03-26T03:03:38.972Z,6.03
2024-03-26T03:03:59.539Z,6.04
2024-03-26T03:04:20.133Z,6.06
2024-03-26T03:04:40.677Z,6.07
2024-03-26T03:05:01.366Z,6.08
2024-03-26T03:05:21.829Z,6.1
2024-03-26T03:05:42.449Z,6.13
2024-03-26T03:06:02.992Z,6.14
2024-03-26T03:06:23.551Z,6.07
2024-03-26T03:06:44.046Z,6.03
2024-03-26T03:07:04.708Z,6.06
2024-03-26T03:07:25.298Z,6.06
2024-03-26T03:07:45.874Z,5.92
2024-03-26T03:08:06.425Z,5.82
2024-03-26T03:08:27.001Z,5.84
2024-03-26T03:08:47.613Z,5.89
2024-03-26T03:09:24.598Z,5.85
2024-03-26T03:09:45.214Z,5.82
2024-03-26T03:10:05.799Z,5.87
2024-03-26T03:10:26.331Z,5.91
2024-03-26T03:10:46.934Z,5.95
2024-03-26T03:11:07.503Z,5.97
2024-03-26T03:11:28.036Z,6.01
2024-03-26T03:11:48.697Z,5.97
2024-03-26T03:12:09.193Z,5.84
2024-03-26T03:12:29.772Z,5.77
2024-03-26T03:12:50.806Z,5.84
2024-03-26T03:13:10.909Z,5.76
2024-03-26T03:13:31.465Z,5.68
2024-03-26T03:13:52.048Z,5.77
2024-03-26T03:14:12.636Z,5.71
2024-03-26T03:14:33.178Z,5.65
2024-03-26T03:14:55.900Z,5.62
2024-03-26T03:15:14.378Z,5.69
2024-03-26T03:15:34.944Z,5.71
2024-03-26T03:15:55.485Z,5.69
2024-03-26T03:16:16.095Z,5.69
2024-03-26T03:16:36.684Z,5.73
2024-03-26T03:16:57.219Z,5.68
2024-03-26T03:17:17.816Z,5.56
2024-03-26T03:17:38.334Z,5.62
2024-03-26T03:17:59.115Z,5.66
2024-03-26T03:18:19.478Z,5.63
2024-03-26T03:18:40.079Z,5.68
2024-03-26T03:19:00.564Z,5.69
2024-03-26T03:19:21.203Z,5.68
2024-03-26T03:19:41.791Z,5.7
2024-03-26T03:20:02.360Z,5.73
2024-03-26T03:20:22.930Z,5.75
2024-03-26T03:20:43.508Z,5.67
2024-03-26T03:21:04.101Z,5.62
2024-03-26T03:21:24.646Z,5.67
2024-03-26T03:21:45.261Z,5.56
2024-03-26T03:22:05.807Z,5.6
2024-03-26T03:22:26.356Z,5.39
2024-03-26T03:22:47.000Z,5.51
2024-03-26T03:23:07.503Z,5.28
2024-03-26T03:23:28.100Z,5.37
2024-03-26T03:23:48.671Z,5.45
2024-03-26T03:24:09.269Z,5.44
2024-03-26T03:24:29.803Z,5.41
2024-03-26T03:24:50.352Z,5.5
2024-03-26T03:25:10.942Z,5.55
2024-03-26T03:25:31.530Z,5.61
2024-03-26T03:25:52.139Z,5.67
2024-03-26T03:26:12.655Z,5.7
2024-03-26T03:26:33.264Z,5.67
2024-03-26T03:26:53.796Z,5.68
2024-03-26T03:27:14.355Z,5.72
2024-03-26T03:27:34.955Z,5.77
2024-03-26T03:27:55.546Z,5.78
2024-03-26T03:28:16.090Z,5.62
2024-03-26T03:28:36.649Z,5.7
2024-03-26T03:28:57.248Z,5.73
2024-03-26T03:29:17.805Z,5.64
2024-03-26T03:29:38.373Z,5.69
2024-03-26T03:29:58.935Z,5.66
2024-03-26T03:30:19.538Z,5.62
2024-03-26T03:30:40.121Z,5.59
2024-03-26T03:31:00.716Z,5.59
2024-03-26T03:31:21.242Z,5.51
2024-03-26T03:31:41.828Z,5.52
2024-03-26T03:32:02.457Z,5.5
2024-03-26T03:32:22.977Z,5.49
2024-03-26T03:32:43.569Z,5.52
2024-03-26T03:33:04.123Z,5.48
2024-03-26T03:33:24.612Z,5.42
2024-03-26T03:33:45.250Z,5.43
2024-03-26T03:34:05.846Z,5.51
2024-03-26T03:34:26.406Z,5.52
2024-03-26T03:34:46.980Z,5.51
2024-03-26T03:35:07.567Z,5.52
2024-03-26T03:35:28.126Z,5.4
2024-03-26T03:35:48.715Z,5.4
2024-03-26T03:36:09.246Z,5.45
2024-03-26T03:36:29.829Z,5.51
2024-03-26T03:36:50.438Z,5.55
2024-03-26T03:37:11.018Z,5.59
2024-03-26T03:37:31.602Z,5.59
2024-03-26T03:37:52.278Z,5.63
2024-03-26T03:38:12.713Z,5.62
2024-03-26T03:38:33.294Z,5.66
2024-03-26T03:38:53.771Z,5.67
2024-03-26T03:39:14.408Z,5.64
2024-03-26T03:39:34.998Z,5.62
2024-03-26T03:39:55.571Z,5.63
2024-03-26T03:40:16.130Z,5.67
2024-03-26T03:40:36.696Z,5.69
2024-03-26T03:40:57.288Z,5.7
2024-03-26T03:41:17.843Z,5.74
2024-03-26T03:41:38.414Z,5.76
2024-03-26T03:41:58.987Z,5.81
2024-03-26T03:42:19.569Z,5.8
2024-03-26T03:42:40.140Z,5.66
2024-03-26T03:43:00.704Z,5.66
2024-03-26T03:43:21.287Z,5.58
2024-03-26T03:43:41.853Z,5.61
2024-03-26T03:44:02.486Z,5.6
2024-03-26T03:44:23.023Z,5.57
2024-03-26T03:44:43.603Z,5.59
2024-03-26T03:45:04.162Z,5.58
2024-03-26T03:45:24.715Z,5.64
2024-03-26T03:45:45.273Z,5.69
2024-03-26T03:46:05.888Z,5.75
2024-03-26T03:46:26.427Z,5.77
2024-03-26T03:46:46.998Z,5.81
2024-03-26T03:47:07.572Z,5.84
2024-03-26T03:47:28.077Z,5.83
2024-03-26T03:47:48.734Z,5.77
2024-03-26T03:48:09.277Z,5.81
2024-03-26T03:48:29.847Z,5.8
2024-03-26T03:48:50.349Z,5.69
2024-03-26T03:49:11.016Z,5.82
2024-03-26T03:49:31.595Z,5.82
2024-03-26T03:49:52.148Z,5.85
2024-03-26T03:50:12.741Z,5.86
2024-03-26T03:50:33.301Z,5.87
2024-03-26T03:50:53.893Z,5.88
2024-03-26T03:51:14.445Z,5.88
2024-03-26T03:51:35.015Z,5.89
2024-03-26T03:51:55.616Z,5.9
2024-03-26T03:52:16.170Z,5.88
2024-03-26T03:52:36.743Z,5.82
2024-03-26T03:52:57.307Z,5.85
2024-03-26T03:53:17.868Z,5.85
2024-03-26T03:53:38.484Z,5.88
2024-03-26T03:53:59.028Z,5.87
2024-03-26T03:54:19.601Z,5.92
2024-03-26T03:54:40.167Z,5.92
2024-03-26T03:55:00.659Z,5.86
2024-03-26T03:55:21.303Z,5.88
2024-03-26T03:55:41.903Z,5.86
2024-03-26T03:56:02.483Z,5.86
2024-03-26T03:56:23.050Z,5.88
2024-03-26T03:56:43.594Z,5.89
2024-03-26T03:57:04.168Z,5.91
2024-03-26T03:57:24.743Z,5.92
2024-03-26T03:57:45.338Z,5.92
2024-03-26T03:58:05.882Z,5.93
2024-03-26T03:58:26.492Z,5.95
2024-03-26T03:58:47.076Z,5.95
2024-03-26T03:59:07.598Z,5.98
2024-03-26T03:59:28.102Z,6.01
2024-03-26T03:59:48.756Z,6.02
2024-03-26T04:00:09.312Z,5.99
2024-03-26T04:00:29.946Z,5.98
2024-03-26T04:00:50.461Z,5.96
2024-03-26T04:01:11.031Z,5.96
2024-03-26T04:01:31.667Z,5.97
2024-03-26T04:01:52.191Z,5.92
2024-03-26T04:02:12.754Z,5.88
2024-03-26T04:02:33.341Z,5.8
2024-03-26T04:02:53.817Z,5.73
2024-03-26T04:03:14.522Z,5.75
2024-03-26T04:03:35.119Z,5.74
2024-03-26T04:03:55.640Z,5.73
2024-03-26T04:04:16.178Z,5.67
2024-03-26T04:04:36.792Z,5.69
2024-03-26T04:04:57.368Z,5.72
2024-03-26T04:05:17.915Z,5.72
2024-03-26T04:05:38.477Z,5.74
2024-03-26T04:05:59.036Z,5.79
2024-03-26T04:06:19.633Z,5.8
2024-03-26T04:06:40.191Z,5.84
2024-03-26T04:07:00.768Z,5.84
2024-03-26T04:07:21.328Z,5.86
2024-03-26T04:07:41.933Z,5.8
2024-03-26T04:08:02.502Z,5.73
2024-03-26T04:08:23.002Z,5.73
2024-03-26T04:08:43.656Z,5.68
2024-03-26T04:09:04.194Z,5.72
2024-03-26T04:09:24.789Z,5.71
2024-03-26T04:09:45.362Z,5.72
2024-03-26T04:10:05.920Z,5.75
2024-03-26T04:10:26.518Z,5.72
2024-03-26T04:10:47.073Z,5.65
2024-03-26T04:11:07.635Z,5.65
2024-03-26T04:11:28.200Z,5.62
2024-03-26T04:11:48.796Z,5.53
2024-03-26T04:12:09.366Z,5.48
2024-03-26T04:12:29.992Z,5.54
2024-03-26T04:12:50.419Z,5.51
2024-03-26T04:13:11.090Z,5.53
2024-03-26T04:13:31.679Z,5.57
2024-03-26T04:13:52.251Z,5.52
2024-03-26T04:14:12.782Z,5.46
2024-03-26T04:14:33.368Z,5.54
2024-03-26T04:14:54.380Z,5.55
2024-03-26T04:15:14.504Z,5.51
2024-03-26T04:15:35.074Z,5.57
2024-03-26T04:15:55.665Z,5.58
2024-03-26T04:16:16.219Z,5.54
2024-03-26T04:16:36.792Z,5.57
2024-03-26T04:16:57.417Z,5.59
2024-03-26T04:17:17.937Z,5.52
2024-03-26T04:17:38.528Z,5.5
2024-03-26T04:18:15.570Z,5.45
2024-03-26T04:18:36.536Z,5.45
2024-03-26T04:18:56.704Z,5.43
2024-03-26T04:19:17.291Z,5.4
2024-03-26T04:19:37.883Z,5.41
2024-03-26T04:19:58.425Z,5.4
2024-03-26T04:20:19.001Z,5.3
2024-03-26T04:20:39.563Z,5.27
2024-03-26T04:21:00.177Z,5.25
2024-03-26T04:21:20.745Z,5.19
2024-03-26T04:21:41.276Z,5.25
2024-03-26T04:22:01.875Z,5.29
2024-03-26T04:22:22.443Z,5.33
2024-03-26T04:22:43.042Z,5.31
2024-03-26T04:23:03.570Z,5.33
2024-03-26T04:23:24.144Z,5.36
2024-03-26T04:23:44.783Z,5.37
2024-03-26T04:24:05.296Z,5.32
2024-03-26T04:24:25.874Z,5.34
2024-03-26T04:24:46.445Z,5.16
2024-03-26T04:25:07.014Z,5.16
2024-03-26T04:25:27.588Z,5.16
2024-03-26T04:25:48.149Z,5.19
2024-03-26T04:26:08.775Z,5.24
2024-03-26T04:26:29.310Z,5.23
2024-03-26T04:26:49.958Z,5.18
2024-03-26T04:27:10.447Z,5.09
2024-03-26T04:27:31.046Z,5.14
2024-03-26T04:27:51.588Z,5.04
2024-03-26T04:28:12.078Z,5.08
2024-03-26T04:28:32.756Z,5
2024-03-26T04:28:53.307Z,5.02
2024-03-26T04:29:13.887Z,5.13
2024-03-26T04:29:34.457Z,4.99
2024-03-26T04:29:55.260Z,4.93
2024-03-26T04:30:15.615Z,5.03
2024-03-26T04:30:36.154Z,5.11
2024-03-26T04:30:56.754Z,5.15
2024-03-26T04:31:17.312Z,5.14
2024-03-26T04:31:37.899Z,5.02
2024-03-26T04:31:58.454Z,4.97
2024-03-26T04:32:19.049Z,4.93
2024-03-26T04:32:39.700Z,4.98
2024-03-26T04:33:00.178Z,5.07
2024-03-26T04:33:20.758Z,5.13
2024-03-26T04:33:41.318Z,5.15
2024-03-26T04:34:01.890Z,5.17
2024-03-26T04:34:22.490Z,5.18
2024-03-26T04:34:43.060Z,5.13
2024-03-26T04:35:03.598Z,5.18
2024-03-26T04:35:24.183Z,5.23
2024-03-26T04:35:44.764Z,5.11
2024-03-26T04:36:05.465Z,5.14
2024-03-26T04:36:25.906Z,5.2
2024-03-26T04:36:46.480Z,5.24